Terminal Aerodrome Forecast
Issued by NWS

Home | Current Version | Previous Version | Graphics & Text | Print | Product List | Glossary On
Versions: 1 2 3 4 5 6 7 8 9 10 11 12 13 14 15 16 17
294
FTUS43 KFGF 212320
TAFBJI
TAF
KBJI 212320Z 2200/2224 31008KT P6SM VCSH OVC015
     FM220500 29006KT P6SM VCSH OVC080
     FM220900 29006KT P6SM OVC003
     FM221200 29007KT P6SM OVC008
     FM221700 30009KT P6SM OVC010
     FM222100 31008KT P6SM OVC020=

USA.gov is the U.S. government's official web portal to all federal, state and local government web resources and services.